Time;durP1;ratioP1;P1;durP2;ratioP2;P2;SDS_P1;SDS_P2;PMS_P1;PMS_P2;Temp;Humidity;BMP_temperature;BMP_pressure;BME280_temperature;BME280_humidity;BME280_pressure;Samples;Min_cycle;Max_cycle;Signal;HPM_P1;HPM_P2
2022/11/10 00:02:14;;;;;;;0.20;0.17;;;;;;;;;;5088404;28;20470;-67
2022/11/10 00:04:40;;;;;;;1.13;0.20;;;;;;;;;;5088007;28;20032;-63
2022/11/10 00:07:07;;;;;;;0.00;0.00;;;;;;;;;;5092059;28;20027;-63
2022/11/10 00:09:34;;;;;;;0.00;0.00;;;;;;;;;;5093752;28;20035;-63
2022/11/10 00:12:00;;;;;;;0.60;0.20;;;;;;;;;;5093646;28;20024;-63
2022/11/10 00:17:12;;;;;;;0.00;0.00;;;;;;;;;;5093367;28;20074;-64
2022/11/10 00:19:39;;;;;;;0.40;0.07;;;;;;;;;;5088310;28;20024;-62
2022/11/10 00:22:05;;;;;;;4.60;0.37;;;;;;;;;;5087121;28;20035;-65
2022/11/10 00:24:32;;;;;;;3.63;0.63;;;;;;;;;;5087587;28;20047;-64
2022/11/10 00:26:59;;;;;;;0.50;0.30;;;;;;;;;;5088059;28;20406;-63
2022/11/10 00:29:25;;;;;;;2.37;0.70;;;;;;;;;;5091990;28;20518;-64
2022/11/10 00:31:52;;;;;;;2.43;0.90;;;;;;;;;;5093015;28;20039;-63
2022/11/10 00:34:19;;;;;;;1.07;0.73;;;;;;;;;;5091273;28;20020;-64
2022/11/10 00:36:45;;;;;;;2.33;1.13;;;;;;;;;;5090531;28;20024;-63
2022/11/10 00:39:12;;;;;;;1.97;0.90;;;;;;;;;;5092725;28;20082;-63
2022/11/10 00:41:39;;;;;;;0.67;0.57;;;;;;;;;;5088575;28;20378;-63
2022/11/10 00:44:05;;;;;;;1.53;0.90;;;;;;;;;;5087457;28;20482;-64
2022/11/10 00:46:32;;;;;;;2.47;1.03;;;;;;;;;;5086732;28;20527;-64
2022/11/10 00:48:58;;;;;;;2.03;1.00;;;;;;;;;;5087552;28;20024;-63
2022/11/10 00:51:26;;;;;;;0.77;0.50;;;;;;;;;;5090831;28;20027;-63
2022/11/10 00:53:53;;;;;;;0.87;0.70;;;;;;;;;;5092562;28;20056;-64
2022/11/10 00:56:21;;;;;;;1.23;0.67;;;;;;;;;;5092792;28;20028;-63
2022/11/10 00:58:48;;;;;;;1.23;0.80;;;;;;;;;;5092474;28;20377;-64
2022/11/10 01:01:15;;;;;;;2.63;1.00;;;;;;;;;;5092728;28;20062;-63
2022/11/10 01:03:42;;;;;;;1.43;0.87;;;;;;;;;;5088723;28;20132;-63
2022/11/10 01:06:14;;;;;;;8.17;0.73;;;;;;;;;;5086942;28;20032;-63
2022/11/10 01:08:41;;;;;;;0.60;0.50;;;;;;;;;;5086258;28;20035;-63
2022/11/10 01:11:10;;;;;;;0.80;0.50;;;;;;;;;;5087103;28;20020;-63
2022/11/10 01:13:37;;;;;;;0.93;0.63;;;;;;;;;;5090659;28;20095;-63
2022/11/10 01:16:05;;;;;;;1.57;0.63;;;;;;;;;;5092443;28;20032;-63
2022/11/10 01:18:32;;;;;;;0.33;0.30;;;;;;;;;;5091468;28;20024;-63
2022/11/10 01:21:01;;;;;;;2.00;0.67;;;;;;;;;;5091729;28;20125;-63
2022/11/10 01:23:29;;;;;;;0.47;0.33;;;;;;;;;;5091256;28;20474;-63
2022/11/10 01:26:05;;;;;;;0.33;0.30;;;;;;;;;;5088711;28;20390;-63
2022/11/10 01:28:32;;;;;;;1.10;0.70;;;;;;;;;;5086964;28;20026;-63
2022/11/10 01:30:59;;;;;;;1.50;0.87;;;;;;;;;;5086835;28;20027;-63
2022/11/10 01:33:26;;;;;;;0.93;0.57;;;;;;;;;;5087027;28;20035;-63
2022/11/10 01:35:53;;;;;;;0.50;0.47;;;;;;;;;;5089056;28;20513;-63
2022/11/10 01:38:20;;;;;;;1.20;0.50;;;;;;;;;;5091021;28;20028;-63
2022/11/10 01:40:47;;;;;;;1.70;0.90;;;;;;;;;;5092206;28;20115;-63
2022/11/10 01:43:14;;;;;;;0.80;0.50;;;;;;;;;;5092260;28;20016;-63
2022/11/10 01:45:40;;;;;;;1.53;0.50;;;;;;;;;;5093208;28;20024;-63
2022/11/10 01:48:08;;;;;;;2.60;0.83;;;;;;;;;;5092461;28;20077;-63
2022/11/10 01:50:37;;;;;;;0.93;0.70;;;;;;;;;;5090701;28;20039;-63
2022/11/10 01:53:06;;;;;;;0.47;0.33;;;;;;;;;;5089577;28;20123;-64
2022/11/10 01:55:34;;;;;;;0.60;0.47;;;;;;;;;;5090749;28;20031;-63
2022/11/10 01:58:01;;;;;;;1.40;0.50;;;;;;;;;;5093580;28;20474;-63
2022/11/10 02:00:27;;;;;;;1.13;0.70;;;;;;;;;;5096093;28;20360;-63
2022/11/10 02:03:01;;;;;;;1.23;0.67;;;;;;;;;;5096035;28;20478;-63
2022/11/10 02:05:27;;;;;;;6.60;0.63;;;;;;;;;;5096111;28;20028;-63
2022/11/10 02:07:56;;;;;;;1.37;0.47;;;;;;;;;;5095491;28;20020;-63
2022/11/10 02:10:22;;;;;;;0.23;0.20;;;;;;;;;;5092122;28;20063;-63
2022/11/10 02:12:50;;;;;;;1.03;0.60;;;;;;;;;;5090629;28;20035;-63
2022/11/10 02:15:17;;;;;;;1.33;0.60;;;;;;;;;;5089751;28;20043;-63
2022/11/10 02:17:46;;;;;;;0.30;0.20;;;;;;;;;;5090534;28;20035;-63
2022/11/10 02:20:15;;;;;;;0.67;0.40;;;;;;;;;;5093168;28;20482;-63
2022/11/10 02:22:42;;;;;;;2.13;0.50;;;;;;;;;;5095353;28;20020;-63
2022/11/10 02:25:09;;;;;;;2.73;0.57;;;;;;;;;;5093822;28;20157;-63
2022/11/10 02:27:35;;;;;;;2.07;0.77;;;;;;;;;;5095468;28;20030;-63
2022/11/10 02:30:02;;;;;;;1.43;0.60;;;;;;;;;;5095663;28;20016;-63
2022/11/10 02:32:28;;;;;;;2.50;0.73;;;;;;;;;;5092186;28;20031;-62
2022/11/10 02:34:55;;;;;;;1.23;0.63;;;;;;;;;;5090083;28;20051;-63
2022/11/10 02:37:22;;;;;;;2.77;1.17;;;;;;;;;;5090125;28;20020;-63
2022/11/10 02:39:48;;;;;;;4.30;1.07;;;;;;;;;;5089735;28;20134;-63
2022/11/10 02:42:15;;;;;;;0.50;0.37;;;;;;;;;;5092093;28;20028;-63
2022/11/10 02:44:42;;;;;;;1.27;0.30;;;;;;;;;;5095109;28;20101;-63
2022/11/10 02:47:09;;;;;;;12.30;0.50;;;;;;;;;;5095521;28;20031;-63
2022/11/10 02:49:36;;;;;;;1.23;0.47;;;;;;;;;;5094994;28;20366;-63
2022/11/10 02:52:02;;;;;;;0.10;0.10;;;;;;;;;;5095115;28;20031;-63
2022/11/10 02:54:29;;;;;;;0.23;0.17;;;;;;;;;;5092544;28;20051;-62
2022/11/10 02:56:56;;;;;;;0.23;0.17;;;;;;;;;;5089036;28;20017;-63
2022/11/10 02:59:22;;;;;;;0.33;0.23;;;;;;;;;;5089676;28;20091;-63
2022/11/10 03:01:49;;;;;;;0.77;0.50;;;;;;;;;;5089544;28;20063;-63
2022/11/10 03:04:16;;;;;;;0.83;0.60;;;;;;;;;;5091131;28;20024;-63
2022/11/10 03:06:42;;;;;;;0.77;0.40;;;;;;;;;;5094779;28;20440;-62
2022/11/10 03:09:09;;;;;;;1.70;0.63;;;;;;;;;;5094785;28;20031;-63
2022/11/10 03:11:36;;;;;;;1.70;0.67;;;;;;;;;;5094885;28;20020;-62
2022/11/10 03:14:02;;;;;;;0.43;0.30;;;;;;;;;;5094062;28;20035;-62
2022/11/10 03:16:29;;;;;;;1.10;0.50;;;;;;;;;;5091956;28;20379;-63
2022/11/10 03:18:56;;;;;;;0.87;0.40;;;;;;;;;;5088970;28;20541;-62
2022/11/10 03:21:23;;;;;;;0.77;0.57;;;;;;;;;;5089298;28;20483;-62
2022/11/10 03:23:49;;;;;;;0.30;0.30;;;;;;;;;;5088809;28;20024;-63
2022/11/10 03:26:16;;;;;;;0.93;0.50;;;;;;;;;;5089736;28;20024;-63
2022/11/10 03:28:43;;;;;;;0.53;0.37;;;;;;;;;;5094561;28;20020;-62
2022/11/10 03:31:09;;;;;;;1.07;0.60;;;;;;;;;;5093760;28;20078;-63
2022/11/10 03:33:36;;;;;;;0.30;0.30;;;;;;;;;;5093943;28;20353;-65
2022/11/10 03:36:03;;;;;;;1.17;0.67;;;;;;;;;;5094259;28;20451;-64
2022/11/10 03:38:29;;;;;;;5.10;1.10;;;;;;;;;;5092074;28;20579;-65
2022/11/10 03:40:56;;;;;;;1.30;0.67;;;;;;;;;;5088469;28;20047;-65
2022/11/10 03:43:23;;;;;;;0.00;0.00;;;;;;;;;;5088853;28;20020;-64
2022/11/10 03:45:49;;;;;;;0.30;0.23;;;;;;;;;;5088826;28;20115;-65
2022/11/10 03:48:16;;;;;;;0.97;0.43;;;;;;;;;;5089186;28;20089;-64
2022/11/10 03:50:43;;;;;;;1.47;0.70;;;;;;;;;;5093909;28;20020;-64
2022/11/10 03:53:09;;;;;;;0.67;0.43;;;;;;;;;;5092724;28;20478;-65
2022/11/10 03:55:36;;;;;;;0.37;0.30;;;;;;;;;;5091946;28;20019;-64
2022/11/10 03:58:03;;;;;;;0.40;0.40;;;;;;;;;;5092608;28;20471;-65
2022/11/10 04:00:30;;;;;;;0.50;0.27;;;;;;;;;;5092006;28;20036;-64
2022/11/10 04:02:57;;;;;;;1.23;0.50;;;;;;;;;;5088069;28;20030;-64
2022/11/10 04:11:03;;;;;;;0.83;0.43;;;;;;;;;;5090251;28;20464;-64
2022/11/10 04:16:15;;;;;;;0.32;0.32;;;;;;;;;;5092947;28;20078;-65
2022/11/10 04:18:41;;;;;;;6.07;0.47;;;;;;;;;;5092609;28;20035;-65
2022/11/10 04:21:08;;;;;;;0.60;0.33;;;;;;;;;;5092458;28;20103;-64
2022/11/10 04:23:35;;;;;;;2.53;0.67;;;;;;;;;;5090200;28;20111;-64
2022/11/10 04:28:52;;;;;;;1.83;0.63;;;;;;;;;;5087500;28;20132;-64
2022/11/10 04:31:19;;;;;;;1.20;0.47;;;;;;;;;;5087500;28;20164;-64
2022/11/10 04:33:46;;;;;;;0.47;0.40;;;;;;;;;;5089920;28;20032;-64
2022/11/10 04:36:14;;;;;;;0.40;0.30;;;;;;;;;;5093121;28;20351;-64
2022/11/10 04:38:41;;;;;;;1.30;0.57;;;;;;;;;;5093229;28;20020;-64
2022/11/10 04:41:08;;;;;;;3.70;0.60;;;;;;;;;;5092980;28;20032;-62
2022/11/10 04:43:35;;;;;;;0.87;0.30;;;;;;;;;;5092830;28;20020;-62
2022/11/10 04:46:03;;;;;;;4.63;0.53;;;;;;;;;;5089414;28;20436;-62
2022/11/10 04:48:30;;;;;;;0.20;0.20;;;;;;;;;;5086623;28;20032;-62
2022/11/10 04:50:57;;;;;;;0.10;0.10;;;;;;;;;;5086967;28;20433;-62
2022/11/10 04:53:24;;;;;;;1.13;0.43;;;;;;;;;;5086895;28;20020;-62
2022/11/10 04:55:51;;;;;;;1.00;0.60;;;;;;;;;;5089943;28;20021;-62
2022/11/10 04:58:18;;;;;;;0.27;0.23;;;;;;;;;;5092682;28;20077;-62
2022/11/10 05:00:44;;;;;;;0.20;0.20;;;;;;;;;;5092745;28;20056;-62
2022/11/10 05:03:12;;;;;;;2.00;0.63;;;;;;;;;;5092373;28;20055;-62
2022/11/10 05:05:39;;;;;;;0.90;0.67;;;;;;;;;;5092518;28;20035;-62
2022/11/10 05:08:06;;;;;;;1.13;0.40;;;;;;;;;;5089977;28;20026;-62
2022/11/10 05:10:33;;;;;;;2.50;1.00;;;;;;;;;;5069281;28;20409;-62
2022/11/10 05:13:02;;;;;;;2.83;0.67;;;;;;;;;;5085642;28;20120;-62
2022/11/10 05:15:28;;;;;;;0.43;0.30;;;;;;;;;;5086746;28;20024;-62
2022/11/10 05:17:55;;;;;;;0.20;0.20;;;;;;;;;;5088685;28;20088;-62
2022/11/10 05:20:23;;;;;;;0.10;0.10;;;;;;;;;;5092345;28;20024;-62
2022/11/10 05:25:37;;;;;;;1.90;0.40;;;;;;;;;;5091959;28;20051;-62
2022/11/10 05:28:04;;;;;;;0.50;0.33;;;;;;;;;;5092463;28;20027;-62
2022/11/10 05:30:31;;;;;;;0.47;0.40;;;;;;;;;;5088633;28;20451;-62
2022/11/10 05:32:58;;;;;;;1.17;0.60;;;;;;;;;;5087133;28;20474;-62
2022/11/10 05:35:25;;;;;;;0.23;0.23;;;;;;;;;;5086878;28;20047;-61
2022/11/10 05:37:52;;;;;;;0.20;0.20;;;;;;;;;;5086542;28;20388;-62
2022/11/10 05:40:18;;;;;;;0.07;0.07;;;;;;;;;;5089388;28;20028;-62
2022/11/10 05:42:46;;;;;;;1.20;0.53;;;;;;;;;;5092041;28;20036;-62
2022/11/10 05:45:13;;;;;;;1.07;0.50;;;;;;;;;;5090523;28;20036;-62
2022/11/10 05:47:40;;;;;;;1.17;0.47;;;;;;;;;;5092290;28;20020;-62
2022/11/10 05:50:07;;;;;;;0.17;0.17;;;;;;;;;;5092119;28;20103;-62
2022/11/10 05:52:34;;;;;;;0.10;0.10;;;;;;;;;;5086475;28;20029;-63
2022/11/10 19:04:51;;;;;;;0.82;0.70;;;;;;;;;;5096391;27;2300135;-63
2022/11/10 19:07:18;;;;;;;2.58;1.05;;;;;;;;;;5145207;27;20045;-62
2022/11/10 19:09:44;;;;;;;1.52;1.00;;;;;;;;;;5145593;27;20119;-62
2022/11/10 19:12:12;;;;;;;1.98;0.98;;;;;;;;;;5145469;27;20025;-62
2022/11/10 19:14:40;;;;;;;1.15;0.82;;;;;;;;;;5146482;27;20430;-62
2022/11/10 19:17:06;;;;;;;0.93;0.60;;;;;;;;;;5150796;27;20019;-62
2022/11/10 19:19:33;;;;;;;1.08;0.73;;;;;;;;;;5150168;27;20496;-63
2022/11/10 19:22:00;;;;;;;1.40;0.85;;;;;;;;;;5159564;27;20019;-62
2022/11/10 19:24:27;;;;;;;1.25;0.90;;;;;;;;;;5135667;27;20019;-62
2022/11/10 19:26:53;;;;;;;2.28;0.98;;;;;;;;;;5152013;27;20023;-63
2022/11/10 19:29:20;;;;;;;1.95;0.95;;;;;;;;;;5153195;27;20117;-63
2022/11/10 19:31:48;;;;;;;1.10;0.88;;;;;;;;;;5145269;27;20508;-63
2022/11/10 19:34:17;;;;;;;2.03;1.20;;;;;;;;;;5145150;27;20038;-62
2022/11/10 19:36:45;;;;;;;2.65;1.13;;;;;;;;;;5146165;27;20019;-63
2022/11/10 19:39:12;;;;;;;4.18;0.90;;;;;;;;;;5150470;27;20014;-64
2022/11/10 19:41:38;;;;;;;1.13;0.77;;;;;;;;;;5150693;27;20019;-64
2022/11/10 19:44:05;;;;;;;5.38;1.42;;;;;;;;;;5150193;27;20019;-64
2022/11/10 19:46:35;;;;;;;0.60;0.52;;;;;;;;;;5131868;27;20027;-64
2022/11/10 19:49:02;;;;;;;1.15;0.77;;;;;;;;;;5148725;27;20026;-64
2022/11/10 19:51:29;;;;;;;6.38;0.60;;;;;;;;;;5144832;27;20026;-65
2022/11/10 19:53:57;;;;;;;1.58;0.82;;;;;;;;;;5145091;27;20507;-64
2022/11/10 19:56:24;;;;;;;4.50;0.80;;;;;;;;;;5145027;27;20026;-64
2022/11/10 19:58:51;;;;;;;1.40;0.93;;;;;;;;;;5145698;27;20027;-64
2022/11/10 20:01:18;;;;;;;0.50;0.50;;;;;;;;;;5142959;27;20056;-64
2022/11/10 20:03:45;;;;;;;1.27;0.73;;;;;;;;;;5127663;27;20041;-65
2022/11/10 20:06:13;;;;;;;2.60;0.90;;;;;;;;;;5116011;27;20379;-64
2022/11/10 20:08:40;;;;;;;1.35;0.63;;;;;;;;;;5115439;27;20106;-64
2022/11/10 20:11:08;;;;;;;2.03;0.70;;;;;;;;;;5121741;27;20020;-64
2022/11/10 20:13:35;;;;;;;0.77;0.60;;;;;;;;;;5130094;27;20122;-64
2022/11/10 20:16:06;;;;;;;0.43;0.40;;;;;;;;;;5126810;27;20474;-64
2022/11/10 20:18:35;;;;;;;0.90;0.55;;;;;;;;;;5109890;28;20020;-64
2022/11/10 20:21:06;;;;;;;1.88;0.50;;;;;;;;;;5110063;28;20443;-63
2022/11/10 20:23:33;;;;;;;0.77;0.60;;;;;;;;;;5119035;27;20031;-64
2022/11/10 20:26:03;;;;;;;1.65;0.52;;;;;;;;;;5135461;27;20023;-64
2022/11/10 20:28:32;;;;;;;0.68;0.50;;;;;;;;;;5127957;27;20024;-64
2022/11/10 20:30:59;;;;;;;0.50;0.40;;;;;;;;;;5114902;28;20066;-65
2022/11/10 20:33:26;;;;;;;5.65;1.00;;;;;;;;;;5128629;27;20233;-64
2022/11/10 20:35:53;;;;;;;2.90;0.80;;;;;;;;;;5127418;27;20031;-64
2022/11/10 20:38:19;;;;;;;1.13;0.50;;;;;;;;;;5119586;27;20594;-63
2022/11/10 20:40:46;;;;;;;0.93;0.70;;;;;;;;;;5117733;27;20038;-63
2022/11/10 20:43:13;;;;;;;0.77;0.40;;;;;;;;;;5110563;27;20031;-64
2022/11/10 20:45:41;;;;;;;1.27;0.60;;;;;;;;;;5114621;27;20362;-64
2022/11/10 20:48:07;;;;;;;1.40;0.88;;;;;;;;;;5114717;28;20022;-64
2022/11/10 20:50:34;;;;;;;0.80;0.60;;;;;;;;;;5114553;28;20020;-64
2022/11/10 20:53:03;;;;;;;0.50;0.40;;;;;;;;;;5132332;27;20034;-63
2022/11/10 20:55:30;;;;;;;0.77;0.55;;;;;;;;;;5127981;27;20023;-64
2022/11/10 20:57:57;;;;;;;0.63;0.55;;;;;;;;;;5109924;27;20114;-64
2022/11/10 21:00:24;;;;;;;1.38;0.77;;;;;;;;;;5109411;27;20023;-64
2022/11/10 21:02:50;;;;;;;2.03;0.65;;;;;;;;;;5109092;28;20028;-64
2022/11/10 21:05:17;;;;;;;1.38;0.68;;;;;;;;;;5108932;27;20073;-64
2022/11/10 21:07:44;;;;;;;2.25;1.27;;;;;;;;;;5113653;27;20024;-63
2022/11/10 21:10:10;;;;;;;4.25;0.95;;;;;;;;;;5114203;28;20035;-65
2022/11/10 21:12:49;;;;;;;0.82;0.50;;;;;;;;;;5114193;28;20141;-65
2022/11/10 21:15:16;;;;;;;0.57;0.50;;;;;;;;;;5132392;27;20035;-65
2022/11/10 21:17:43;;;;;;;0.80;0.60;;;;;;;;;;5131067;27;20030;-65
2022/11/10 21:20:10;;;;;;;0.38;0.38;;;;;;;;;;5121435;27;20492;-65
2022/11/10 21:22:36;;;;;;;1.10;0.57;;;;;;;;;;5108228;28;20028;-65
2022/11/10 21:25:03;;;;;;;0.63;0.43;;;;;;;;;;5109664;27;20047;-65
2022/11/10 21:27:30;;;;;;;1.30;0.70;;;;;;;;;;5125237;27;20027;-65
2022/11/10 21:29:57;;;;;;;2.85;0.90;;;;;;;;;;5131804;27;20027;-66
2022/11/10 21:32:24;;;;;;;10.95;2.63;;;;;;;;;;5134016;27;20031;-65
2022/11/10 21:34:50;;;;;;;4.55;0.95;;;;;;;;;;5134021;27;20042;-65
2022/11/10 21:37:17;;;;;;;1.48;0.50;;;;;;;;;;5123097;27;20043;-65
2022/11/10 21:39:44;;;;;;;1.98;0.95;;;;;;;;;;5127681;27;20469;-65
2022/11/10 21:42:11;;;;;;;3.33;1.02;;;;;;;;;;5127432;27;20019;-65
2022/11/10 21:44:37;;;;;;;2.40;1.15;;;;;;;;;;5124307;27;20063;-65
2022/11/10 21:47:04;;;;;;;1.15;0.68;;;;;;;;;;5128462;27;20031;-65
2022/11/10 21:49:31;;;;;;;3.20;0.82;;;;;;;;;;5128784;27;20038;-65
2022/11/10 21:51:58;;;;;;;1.63;1.02;;;;;;;;;;5120772;27;20024;-65
2022/11/10 21:54:25;;;;;;;4.57;0.90;;;;;;;;;;5113399;28;20032;-65
2022/11/10 21:56:51;;;;;;;9.68;0.68;;;;;;;;;;5128791;27;20389;-66
2022/11/10 21:59:20;;;;;;;1.30;0.80;;;;;;;;;;5116152;27;20035;-65
2022/11/10 22:01:46;;;;;;;0.52;0.52;;;;;;;;;;5113254;28;20043;-65
2022/11/10 22:04:13;;;;;;;1.23;0.73;;;;;;;;;;5108594;28;20029;-65
2022/11/10 22:20:30;;;;;;;0.75;0.57;;;;;;;;;;5133270;27;20038;-65
2022/11/10 22:22:57;;;;;;;0.40;0.32;;;;;;;;;;5120806;27;20080;-65
2022/11/10 22:25:23;;;;;;;1.25;0.70;;;;;;;;;;5122611;27;20019;-66
2022/11/10 22:27:50;;;;;;;0.82;0.55;;;;;;;;;;5117888;27;20024;-65
2022/11/10 22:30:17;;;;;;;0.85;0.52;;;;;;;;;;5107272;27;20397;-65
2022/11/10 22:32:43;;;;;;;0.90;0.68;;;;;;;;;;5099859;27;20031;-64
2022/11/10 22:35:41;;;;;;;0.77;0.60;;;;;;;;;;5127864;27;20030;-64
2022/11/10 22:38:03;;;;;;;0.73;0.45;;;;;;;;;;5122063;27;20089;-63
2022/11/10 22:45:59;;;;;;;1.80;0.75;;;;;;;;;;5128645;27;20046;-62
2022/11/10 22:48:27;;;;;;;21.92;3.08;;;;;;;;;;5114533;27;20028;-64
2022/11/10 22:50:54;;;;;;;1.95;1.15;;;;;;;;;;5107329;28;20041;-64
2022/11/10 22:53:21;;;;;;;1.05;0.63;;;;;;;;;;5107309;28;20058;-64
2022/11/10 22:55:48;;;;;;;7.28;2.67;;;;;;;;;;5107472;28;20038;-67
2022/11/10 22:58:14;;;;;;;0.95;0.57;;;;;;;;;;5109642;28;20366;-62
2022/11/10 23:00:41;;;;;;;1.23;0.63;;;;;;;;;;5129115;28;20031;-63
2022/11/10 23:03:08;;;;;;;0.73;0.50;;;;;;;;;;5125477;28;20095;-64
2022/11/10 23:05:35;;;;;;;9.35;0.63;;;;;;;;;;5132620;28;20027;-64
2022/11/10 23:08:02;;;;;;;0.75;0.47;;;;;;;;;;5121041;28;20427;-63
2022/11/10 23:10:29;;;;;;;0.80;0.43;;;;;;;;;;5109800;28;20031;-63
2022/11/10 23:12:55;;;;;;;1.92;0.82;;;;;;;;;;5106989;28;20027;-63
2022/11/10 23:15:22;;;;;;;9.07;1.10;;;;;;;;;;5121181;28;20030;-64
2022/11/10 23:17:49;;;;;;;5.10;1.13;;;;;;;;;;5127149;28;20035;-64
2022/11/10 23:20:16;;;;;;;3.92;1.02;;;;;;;;;;5129461;28;20019;-63
2022/11/10 23:22:42;;;;;;;2.30;0.85;;;;;;;;;;5119438;28;20081;-64
2022/11/10 23:25:09;;;;;;;6.63;0.90;;;;;;;;;;5124396;28;20489;-63
2022/11/10 23:27:36;;;;;;;1.90;0.73;;;;;;;;;;5131087;28;20382;-64
2022/11/10 23:30:02;;;;;;;0.85;0.63;;;;;;;;;;5115108;28;20035;-64
2022/11/10 23:32:29;;;;;;;2.47;0.70;;;;;;;;;;5121904;28;20026;-65
2022/11/10 23:34:56;;;;;;;3.03;1.45;;;;;;;;;;5117408;28;20024;-65
2022/11/10 23:37:22;;;;;;;0.85;0.68;;;;;;;;;;5106934;28;20027;-64
2022/11/10 23:39:49;;;;;;;3.33;1.55;;;;;;;;;;5121130;27;20435;-66
2022/11/10 23:42:15;;;;;;;2.25;1.23;;;;;;;;;;5129849;27;20462;-64
2022/11/10 23:44:42;;;;;;;4.40;1.77;;;;;;;;;;5115930;28;20525;-65
2022/11/10 23:47:09;;;;;;;7.70;1.35;;;;;;;;;;5115900;28;20030;-65
2022/11/10 23:49:35;;;;;;;1.05;0.68;;;;;;;;;;5116204;28;20075;-65
2022/11/10 23:52:02;;;;;;;2.28;1.27;;;;;;;;;;5132395;27;20019;-65
2022/11/10 23:54:29;;;;;;;1.50;1.00;;;;;;;;;;5129596;27;20035;-65
2022/11/10 23:56:55;;;;;;;2.13;0.95;;;;;;;;;;5128919;27;20023;-66
2022/11/10 23:59:22;;;;;;;2.15;1.40;;;;;;;;;;5129081;27;20084;-66
